Time;durP1;ratioP1;P1;durP2;ratioP2;P2;SDS_P1;SDS_P2;PMS_P1;PMS_P2;Temp;Humidity;BMP_temperature;BMP_pressure;BME280_temperature;BME280_humidity;BME280_pressure;Samples;Min_cycle;Max_cycle;Signal;HPM_P1;HPM_P2
2023/09/07 00:00:48;;;;;;;4.73;3.97;;;18.90;99.90;;;;;;5033660;28;20497;-71
2023/09/07 00:03:14;;;;;;;3.77;3.37;;;18.80;99.90;;;;;;5033104;28;20430;-70
2023/09/07 00:05:40;;;;;;;4.07;3.77;;;18.80;99.90;;;;;;5033446;28;20660;-70
2023/09/07 00:08:06;;;;;;;4.10;3.80;;;18.80;99.90;;;;;;5033093;28;20410;-69
2023/09/07 00:10:35;;;;;;;3.70;3.40;;;18.80;99.90;;;;;;5033278;28;20410;-70
2023/09/07 00:13:02;;;;;;;3.73;3.43;;;18.80;99.90;;;;;;5031779;28;20191;-69
2023/09/07 00:15:28;;;;;;;5.20;3.90;;;18.80;99.90;;;;;;5033221;28;20457;-71
2023/09/07 00:17:54;;;;;;;6.57;4.03;;;18.80;99.90;;;;;;5032325;28;20489;-71
2023/09/07 00:20:21;;;;;;;3.60;3.10;;;18.80;99.90;;;;;;5032943;28;20468;-69
2023/09/07 00:22:47;;;;;;;4.63;4.23;;;18.80;99.90;;;;;;5032769;28;20199;-71
2023/09/07 00:25:13;;;;;;;4.53;3.27;;;18.80;99.90;;;;;;5032929;28;20513;-69
2023/09/07 00:27:39;;;;;;;4.73;4.30;;;18.80;99.90;;;;;;5032902;28;20413;-70
2023/09/07 00:30:05;;;;;;;4.20;3.80;;;18.90;99.90;;;;;;5032837;28;20418;-71
2023/09/07 00:32:32;;;;;;;5.80;3.83;;;18.80;99.90;;;;;;5032922;28;20223;-69
2023/09/07 00:34:58;;;;;;;6.20;3.80;;;18.80;99.90;;;;;;5032411;28;20545;-69
2023/09/07 00:37:23;;;;;;;4.30;3.90;;;18.70;99.90;;;;;;5032991;28;20442;-70
2023/09/07 00:39:49;;;;;;;4.27;3.83;;;18.70;99.90;;;;;;5031412;28;20206;-70
2023/09/07 00:42:14;;;;;;;4.93;3.80;;;18.60;99.90;;;;;;5032724;28;20198;-69
2023/09/07 00:44:40;;;;;;;3.83;3.47;;;18.50;99.90;;;;;;5032196;28;20171;-69
2023/09/07 00:47:05;;;;;;;4.23;3.93;;;18.50;99.90;;;;;;5033012;28;20257;-69
2023/09/07 00:49:31;;;;;;;3.53;3.10;;;18.60;99.90;;;;;;5032633;28;20175;-69
2023/09/07 00:51:57;;;;;;;3.83;3.53;;;18.60;99.90;;;;;;5032361;28;20222;-69
2023/09/07 00:54:23;;;;;;;4.33;3.70;;;18.70;99.90;;;;;;5031823;28;20940;-71
2023/09/07 00:56:49;;;;;;;5.17;3.50;;;18.70;99.90;;;;;;5032416;28;20180;-70
2023/09/07 00:59:14;;;;;;;4.53;4.03;;;18.70;99.90;;;;;;5032426;28;20258;-70
2023/09/07 01:01:41;;;;;;;4.50;4.10;;;18.70;99.90;;;;;;5032676;28;20198;-71
2023/09/07 01:04:07;;;;;;;3.90;3.50;;;18.70;99.90;;;;;;5032176;28;20524;-70
2023/09/07 01:06:57;;;;;;;6.43;4.40;;;18.70;99.90;;;;;;5032580;28;20445;-71
2023/09/07 01:09:26;;;;;;;3.77;3.47;;;18.70;99.90;;;;;;5031725;28;20252;-70
2023/09/07 01:11:52;;;;;;;4.60;3.60;;;18.60;99.90;;;;;;5031970;28;20478;-70
2023/09/07 01:14:18;;;;;;;4.30;3.80;;;18.50;99.90;;;;;;5032319;28;20973;-69
2023/09/07 01:16:44;;;;;;;4.30;3.63;;;18.50;99.90;;;;;;5032032;28;20410;-70
2023/09/07 01:19:11;;;;;;;4.83;4.10;;;18.50;99.90;;;;;;5032148;28;20175;-69
2023/09/07 01:21:38;;;;;;;4.70;4.30;;;18.40;99.90;;;;;;5031737;28;20444;-69
2023/09/07 01:24:09;;;;;;;4.53;4.17;;;18.30;99.90;;;;;;5031670;28;20414;-69
2023/09/07 01:26:38;;;;;;;4.60;4.20;;;18.30;99.90;;;;;;5032195;28;20410;-69
2023/09/07 01:29:05;;;;;;;5.30;4.80;;;18.30;99.90;;;;;;5032004;28;20434;-69
2023/09/07 01:31:30;;;;;;;4.37;3.97;;;18.30;99.90;;;;;;5031591;28;20425;-70
2023/09/07 01:33:56;;;;;;;4.40;3.97;;;18.20;99.90;;;;;;5031692;28;20774;-72
2023/09/07 01:36:21;;;;;;;3.83;3.43;;;18.10;99.90;;;;;;5031988;28;20175;-71
2023/09/07 01:38:47;;;;;;;4.60;4.20;;;18.10;99.90;;;;;;5031017;28;20187;-71
2023/09/07 01:41:12;;;;;;;4.63;4.10;;;18.10;99.90;;;;;;5031140;28;20167;-71
2023/09/07 01:43:39;;;;;;;4.73;4.33;;;18.10;99.90;;;;;;5031634;28;20266;-69
2023/09/07 01:46:04;;;;;;;4.07;3.70;;;18.10;99.90;;;;;;5031698;28;20167;-69
2023/09/07 01:48:30;;;;;;;3.87;3.57;;;18.10;99.90;;;;;;5031355;28;20414;-70
2023/09/07 01:50:55;;;;;;;4.60;4.17;;;18.20;99.90;;;;;;5030237;28;20171;-69
2023/09/07 01:53:21;;;;;;;7.30;4.40;;;18.20;99.90;;;;;;5030660;28;20191;-69
2023/09/07 01:55:47;;;;;;;4.50;4.10;;;18.10;99.90;;;;;;5030501;28;20195;-69
2023/09/07 01:58:13;;;;;;;5.00;4.50;;;18.10;99.90;;;;;;5031002;28;20186;-73
2023/09/07 02:00:39;;;;;;;4.13;3.83;;;18.10;99.90;;;;;;5031317;28;20841;-72
2023/09/07 02:03:05;;;;;;;4.90;4.50;;;18.10;99.90;;;;;;5029613;28;20426;-73
2023/09/07 02:05:32;;;;;;;4.40;4.00;;;18.00;99.90;;;;;;5031112;28;20167;-72
2023/09/07 02:07:58;;;;;;;4.70;4.30;;;17.90;99.90;;;;;;5030921;28;20442;-73
2023/09/07 02:10:24;;;;;;;5.10;4.70;;;17.80;99.90;;;;;;5029196;28;20487;-72
2023/09/07 02:12:49;;;;;;;4.80;4.40;;;17.80;99.90;;;;;;5030776;28;20919;-71
2023/09/07 02:15:15;;;;;;;4.90;4.40;;;17.80;99.90;;;;;;5030922;28;20569;-71
2023/09/07 02:17:44;;;;;;;4.43;4.03;;;17.80;99.90;;;;;;5031164;28;20178;-73
2023/09/07 02:20:11;;;;;;;5.03;3.50;;;17.80;99.90;;;;;;5030263;28;20487;-73
2023/09/07 02:22:37;;;;;;;4.73;4.33;;;17.80;99.90;;;;;;5029234;28;20458;-73
2023/09/07 02:25:05;;;;;;;5.53;4.80;;;17.80;99.90;;;;;;5030450;28;20442;-72
2023/09/07 02:27:31;;;;;;;5.03;4.60;;;17.80;99.90;;;;;;5030776;28;20489;-73
2023/09/07 02:29:57;;;;;;;4.87;4.47;;;17.80;99.90;;;;;;5030755;28;20509;-73
2023/09/07 02:32:23;;;;;;;5.20;4.70;;;17.80;99.90;;;;;;5030642;28;20457;-72
2023/09/07 02:34:48;;;;;;;6.07;5.47;;;17.70;99.90;;;;;;5030904;28;20198;-71
2023/09/07 02:37:15;;;;;;;4.80;4.30;;;17.60;99.90;;;;;;5029627;28;20182;-72
2023/09/07 02:39:41;;;;;;;7.40;5.20;;;17.70;99.90;;;;;;5030307;28;20531;-73
2023/09/07 02:42:07;;;;;;;5.23;4.73;;;17.70;99.90;;;;;;5030649;28;20418;-71
2023/09/07 02:44:32;;;;;;;6.10;5.10;;;17.60;99.90;;;;;;5030681;28;20421;-72
2023/09/07 02:46:58;;;;;;;5.60;5.10;;;17.60;99.90;;;;;;5030700;28;20206;-73
2023/09/07 02:49:23;;;;;;;5.70;5.10;;;17.60;99.90;;;;;;5030929;28;20186;-72
2023/09/07 02:51:49;;;;;;;6.73;5.30;;;17.50;99.90;;;;;;5030338;28;20599;-72
2023/09/07 02:54:14;;;;;;;4.97;4.50;;;17.50;99.90;;;;;;5030115;28;20677;-72
2023/09/07 02:56:40;;;;;;;6.57;6.07;;;17.50;99.90;;;;;;5030522;28;20626;-73
2023/09/07 02:59:05;;;;;;;4.90;4.50;;;17.50;99.90;;;;;;5029351;28;20566;-73
2023/09/07 03:01:31;;;;;;;5.70;5.20;;;17.50;99.90;;;;;;5030608;28;20222;-73
2023/09/07 03:03:57;;;;;;;5.90;4.50;;;17.50;99.90;;;;;;5030584;28;20601;-73
2023/09/07 03:06:22;;;;;;;5.47;4.97;;;17.50;99.90;;;;;;5030874;28;20172;-72
2023/09/07 03:08:48;;;;;;;5.73;5.23;;;17.40;99.90;;;;;;5030991;28;20172;-72
2023/09/07 03:11:13;;;;;;;5.93;5.13;;;17.40;99.90;;;;;;5032963;28;20171;-71
2023/09/07 03:13:39;;;;;;;4.70;4.13;;;17.40;99.90;;;;;;5034043;28;20190;-72
2023/09/07 03:16:05;;;;;;;5.30;4.80;;;17.50;99.90;;;;;;5033593;28;20203;-71
2023/09/07 03:18:31;;;;;;;5.13;4.73;;;17.40;99.90;;;;;;5034623;28;20207;-72
2023/09/07 03:20:59;;;;;;;5.40;4.90;;;17.30;99.90;;;;;;5034065;28;20925;-72
2023/09/07 03:23:25;;;;;;;5.63;5.13;;;17.30;99.90;;;;;;5058389;23;20489;-67
2023/09/07 03:25:51;;;;;;;6.33;5.73;;;17.30;99.90;;;;;;5035237;28;20482;-68
2023/09/07 03:28:16;;;;;;;5.10;4.70;;;17.30;99.90;;;;;;5035816;28;20633;-68
2023/09/07 03:30:42;;;;;;;5.73;5.13;;;17.30;99.90;;;;;;5034158;28;20538;-69
2023/09/07 03:33:07;;;;;;;5.47;5.07;;;17.20;99.90;;;;;;5021877;28;20638;-69
2023/09/07 03:35:33;;;;;;;5.40;4.90;;;17.20;99.90;;;;;;5018080;28;20558;-68
2023/09/07 03:37:59;;;;;;;5.67;5.17;;;17.20;99.90;;;;;;5015847;28;20172;-69
2023/09/07 03:40:24;;;;;;;6.00;5.40;;;17.20;99.90;;;;;;5015008;28;20434;-69
2023/09/07 03:42:50;;;;;;;6.63;6.00;;;17.20;99.90;;;;;;5026758;28;20199;-67
2023/09/07 03:45:16;;;;;;;5.40;4.90;;;17.20;99.90;;;;;;5035510;28;20167;-68
2023/09/07 03:47:42;;;;;;;5.70;5.20;;;17.10;99.90;;;;;;5035441;28;20181;-69
2023/09/07 03:50:08;;;;;;;5.53;5.00;;;17.10;99.90;;;;;;5035408;28;20261;-67
2023/09/07 03:52:33;;;;;;;5.03;4.63;;;17.00;99.90;;;;;;5026316;28;20427;-67
2023/09/07 03:55:00;;;;;;;5.97;5.13;;;17.00;99.90;;;;;;5021724;28;20514;-68
2023/09/07 03:57:27;;;;;;;6.30;4.77;;;17.00;99.90;;;;;;5033697;28;20170;-68
2023/09/07 03:59:52;;;;;;;8.53;6.33;;;16.90;99.90;;;;;;5034976;28;20769;-70
2023/09/07 04:02:18;;;;;;;5.00;4.50;;;16.90;99.90;;;;;;5028385;28;20422;-68
2023/09/07 04:04:48;;;;;;;5.53;4.90;;;16.80;99.90;;;;;;5014938;28;20180;-69
2023/09/07 04:07:13;;;;;;;6.07;5.50;;;16.80;99.90;;;;;;5015123;28;20186;-68
2023/09/07 04:09:39;;;;;;;6.77;6.17;;;16.80;99.90;;;;;;5014462;28;20403;-69
2023/09/07 04:12:06;;;;;;;5.50;5.03;;;16.90;99.90;;;;;;5019195;28;20238;-70
2023/09/07 04:14:31;;;;;;;5.47;5.07;;;16.80;99.90;;;;;;5034644;28;20191;-70
2023/09/07 04:16:58;;;;;;;5.90;5.40;;;16.80;99.90;;;;;;5035039;28;20413;-69
2023/09/07 04:19:23;;;;;;;7.10;5.23;;;16.90;99.90;;;;;;5034017;28;20265;-69
2023/09/07 04:21:49;;;;;;;6.00;5.40;;;16.90;99.90;;;;;;5031843;28;20838;-69
2023/09/07 04:24:14;;;;;;;6.30;5.70;;;16.80;99.90;;;;;;5015025;28;20224;-68
2023/09/07 04:26:40;;;;;;;5.83;5.23;;;16.80;99.90;;;;;;5014389;28;20207;-69
2023/09/07 04:29:07;;;;;;;9.70;5.57;;;16.70;99.90;;;;;;5015077;28;20186;-68
2023/09/07 04:31:33;;;;;;;6.50;6.00;;;16.70;99.90;;;;;;5014459;28;20246;-69
2023/09/07 04:33:59;;;;;;;5.60;5.10;;;16.70;99.90;;;;;;5033820;28;20453;-69
2023/09/07 04:36:25;;;;;;;12.27;6.57;;;16.60;99.90;;;;;;5034581;28;20179;-69
2023/09/07 04:38:51;;;;;;;7.23;5.97;;;16.60;99.90;;;;;;5034065;28;20410;-69
2023/09/07 04:41:16;;;;;;;6.30;5.70;;;16.60;99.90;;;;;;5018956;28;20309;-69
2023/09/07 04:43:43;;;;;;;6.00;5.50;;;16.60;99.90;;;;;;5030325;28;20201;-69
2023/09/07 04:46:09;;;;;;;5.90;5.40;;;16.60;99.90;;;;;;5034079;28;20263;-69
2023/09/07 04:48:35;;;;;;;6.50;5.90;;;16.60;99.90;;;;;;5034061;28;20413;-69
2023/09/07 04:51:03;;;;;;;6.10;5.60;;;16.60;99.90;;;;;;5034035;28;20417;-69
2023/09/07 04:53:30;;;;;;;6.40;5.80;;;16.60;99.90;;;;;;5018748;28;20557;-69
2023/09/07 04:55:56;;;;;;;7.97;6.20;;;16.60;99.90;;;;;;5013650;28;20530;-69
2023/09/07 04:58:22;;;;;;;5.80;5.30;;;16.60;99.90;;;;;;5012854;28;20418;-69
2023/09/07 05:00:48;;;;;;;7.00;6.33;;;16.60;99.90;;;;;;5014268;28;20222;-68
2023/09/07 05:03:13;;;;;;;6.93;5.67;;;16.60;99.90;;;;;;5026882;28;20194;-69
2023/09/07 05:05:41;;;;;;;6.03;5.47;;;16.60;99.90;;;;;;5033828;28;20258;-68
2023/09/07 05:08:06;;;;;;;5.50;5.00;;;16.60;99.90;;;;;;5033673;28;20754;-68
2023/09/07 05:10:35;;;;;;;6.30;5.70;;;16.70;99.90;;;;;;5024333;28;20449;-68
2023/09/07 05:13:01;;;;;;;10.00;6.87;;;16.70;99.90;;;;;;5024893;28;20278;-70
2023/09/07 05:15:27;;;;;;;6.63;6.03;;;16.60;99.90;;;;;;5033634;28;20531;-69
2023/09/07 05:17:53;;;;;;;6.50;5.83;;;16.60;99.90;;;;;;5034001;28;20544;-69
2023/09/07 05:20:19;;;;;;;6.50;5.90;;;16.60;99.90;;;;;;5033405;28;20518;-70
2023/09/07 05:22:45;;;;;;;7.43;6.70;;;16.70;99.90;;;;;;5024572;28;20442;-70
2023/09/07 05:25:11;;;;;;;6.57;5.97;;;16.70;99.90;;;;;;5012964;28;20180;-70
2023/09/07 05:27:36;;;;;;;6.03;5.53;;;16.70;99.90;;;;;;5013452;28;20471;-70
2023/09/07 05:30:03;;;;;;;7.23;5.60;;;16.70;99.90;;;;;;5013385;28;20254;-69
2023/09/07 05:32:28;;;;;;;6.73;6.13;;;16.70;99.90;;;;;;5019703;28;20843;-69
2023/09/07 05:34:54;;;;;;;6.37;5.77;;;16.70;99.90;;;;;;5033054;28;20535;-69
2023/09/07 05:37:20;;;;;;;5.77;5.27;;;16.70;99.90;;;;;;5032649;28;20641;-69
2023/09/07 05:39:45;;;;;;;6.53;5.93;;;16.80;99.90;;;;;;5027351;28;20588;-70
2023/09/07 05:42:12;;;;;;;7.70;6.10;;;16.80;99.90;;;;;;5016923;28;20298;-69
2023/09/07 05:44:38;;;;;;;8.13;6.40;;;16.80;99.90;;;;;;5031445;28;20496;-68
2023/09/07 05:47:04;;;;;;;6.43;5.80;;;16.90;99.90;;;;;;5013635;28;20822;-69
2023/09/07 05:49:30;;;;;;;7.07;6.40;;;16.90;99.90;;;;;;5013441;28;20447;-69
2023/09/07 05:51:55;;;;;;;7.50;6.50;;;17.00;99.90;;;;;;5014882;28;20434;-69
2023/09/07 05:54:21;;;;;;;6.60;6.03;;;17.00;99.90;;;;;;5032555;28;20697;-69
2023/09/07 05:56:46;;;;;;;8.63;7.50;;;17.00;99.90;;;;;;5032258;28;20210;-68
2023/09/07 05:59:12;;;;;;;6.70;5.93;;;17.00;99.90;;;;;;5012972;28;20176;-69
2023/09/07 06:01:39;;;;;;;10.50;6.80;;;17.00;99.90;;;;;;5013161;28;20180;-69
2023/09/07 06:04:06;;;;;;;7.60;6.77;;;17.10;99.90;;;;;;5032147;28;20245;-69
2023/09/07 06:06:31;;;;;;;6.80;6.30;;;17.10;99.90;;;;;;5032733;28;20409;-69
2023/09/07 06:08:58;;;;;;;7.60;6.03;;;17.20;99.90;;;;;;5031598;28;20410;-68
2023/09/07 06:11:24;;;;;;;8.00;6.40;;;17.20;99.90;;;;;;5016418;28;20186;-69
2023/09/07 06:13:50;;;;;;;5.93;5.43;;;17.30;99.90;;;;;;5029491;28;20417;-68
2023/09/07 06:16:16;;;;;;;7.27;6.57;;;17.30;99.90;;;;;;5032238;28;20199;-69
2023/09/07 06:18:42;;;;;;;8.10;5.97;;;17.40;99.90;;;;;;5032358;28;20164;-68
2023/09/07 06:21:07;;;;;;;11.53;7.37;;;17.50;99.90;;;;;;5032400;28;20171;-69
2023/09/07 06:23:33;;;;;;;6.77;6.17;;;17.50;99.90;;;;;;5017712;28;20222;-69
2023/09/07 06:25:59;;;;;;;6.80;6.10;;;17.70;99.90;;;;;;5012341;28;20619;-69
2023/09/07 06:28:25;;;;;;;7.03;6.27;;;17.80;99.90;;;;;;5010948;28;20179;-69
2023/09/07 06:30:50;;;;;;;7.80;7.10;;;17.80;99.90;;;;;;5012799;28;20418;-69
2023/09/07 06:33:17;;;;;;;6.30;5.70;;;17.90;99.90;;;;;;5024268;28;20194;-68
2023/09/07 06:35:42;;;;;;;7.50;6.17;;;18.00;99.90;;;;;;5032408;28;20639;-68
2023/09/07 06:38:08;;;;;;;8.13;6.50;;;18.20;99.90;;;;;;5032281;28;20488;-69
2023/09/07 06:40:33;;;;;;;7.40;6.70;;;18.20;99.90;;;;;;5022829;28;20168;-69
2023/09/07 06:43:00;;;;;;;9.80;6.40;;;18.30;99.90;;;;;;5024004;28;20210;-69
2023/09/07 06:45:25;;;;;;;7.13;6.40;;;18.40;99.90;;;;;;5038814;28;20217;-69
2023/09/07 06:47:51;;;;;;;6.27;5.67;;;18.50;99.90;;;;;;5039351;28;20437;-68
2023/09/07 06:50:17;;;;;;;7.37;6.67;;;18.50;99.90;;;;;;5038885;28;20178;-68
2023/09/07 06:52:42;;;;;;;8.10;5.70;;;18.60;99.90;;;;;;5031448;28;20228;-68
2023/09/07 06:55:08;;;;;;;6.30;5.70;;;18.80;99.90;;;;;;5018671;28;20187;-68
2023/09/07 06:57:33;;;;;;;7.40;6.17;;;18.90;99.90;;;;;;5018884;28;20171;-69
2023/09/07 06:59:59;;;;;;;7.40;6.70;;;19.00;99.90;;;;;;5018349;28;20501;-69
2023/09/07 07:02:25;;;;;;;9.07;8.07;;;19.10;99.90;;;;;;5023274;28;20191;-68
2023/09/07 07:04:51;;;;;;;8.40;6.60;;;19.10;99.90;;;;;;5038311;28;20525;-68
2023/09/07 07:07:17;;;;;;;7.80;7.00;;;19.30;99.90;;;;;;5038397;28;20171;-69
2023/09/07 07:09:43;;;;;;;8.67;7.77;;;19.40;99.90;;;;;;5036970;28;20246;-70
2023/09/07 07:12:09;;;;;;;8.43;7.63;;;19.30;99.90;;;;;;5020838;28;20875;-70
2023/09/07 07:14:34;;;;;;;9.13;8.20;;;19.30;99.90;;;;;;5038520;28;20209;-69
2023/09/07 07:17:03;;;;;;;8.70;7.90;;;19.40;99.90;;;;;;5038437;28;20167;-69
2023/09/07 07:19:29;;;;;;;9.83;8.83;;;19.60;99.90;;;;;;5038058;28;20187;-69
2023/09/07 07:21:54;;;;;;;9.30;8.30;;;19.60;99.90;;;;;;5018540;28;20469;-70
2023/09/07 07:24:20;;;;;;;7.30;6.70;;;19.40;99.90;;;;;;5018405;28;20590;-69
2023/09/07 07:26:46;;;;;;;8.87;7.97;;;19.50;99.90;;;;;;5018262;28;20172;-71
2023/09/07 07:29:11;;;;;;;7.63;6.90;;;19.70;99.90;;;;;;5018520;28;20192;-70
2023/09/07 07:34:13;;;;;;;10.27;7.30;;;20.00;99.90;;;;;;5558180;23;20246;-70
2023/09/07 07:36:38;;;;;;;8.80;7.67;;;20.00;99.90;;;;;;4968831;28;20424;-69
2023/09/07 07:39:07;;;;;;;7.93;7.17;;;20.00;99.90;;;;;;4969668;28;20774;-68
2023/09/07 07:41:32;;;;;;;7.50;6.90;;;20.10;99.90;;;;;;4969287;28;20547;-67
2023/09/07 07:43:58;;;;;;;7.03;6.30;;;20.30;99.90;;;;;;4969194;28;21004;-68
2023/09/07 07:46:24;;;;;;;6.83;6.10;;;20.60;99.90;;;;;;4970080;28;20726;-68
2023/09/07 07:48:49;;;;;;;7.23;6.43;;;20.90;99.90;;;;;;4969695;28;20552;-70
2023/09/07 07:51:15;;;;;;;8.13;7.37;;;20.80;99.90;;;;;;4969973;28;20898;-70
2023/09/07 07:53:40;;;;;;;7.40;6.80;;;20.80;99.90;;;;;;4969325;28;20229;-70
2023/09/07 07:56:14;;;;;;;6.90;6.30;;;20.90;99.90;;;;;;4968735;28;20255;-71
2023/09/07 07:58:40;;;;;;;8.67;7.80;;;21.00;99.90;;;;;;4971016;28;20292;-71
2023/09/07 08:01:16;;;;;;;7.10;6.50;;;20.90;99.90;;;;;;4966755;28;20815;-69
2023/09/07 08:03:42;;;;;;;7.50;6.80;;;21.00;99.90;;;;;;4965721;28;20573;-70
2023/09/07 08:06:07;;;;;;;6.90;6.33;;;21.10;99.90;;;;;;4966708;28;20420;-68
2023/09/07 08:08:33;;;;;;;7.10;6.50;;;21.30;99.90;;;;;;4966607;28;20220;-68
2023/09/07 08:11:00;;;;;;;7.27;6.57;;;21.40;99.90;;;;;;4966529;28;20178;-68
2023/09/07 08:13:25;;;;;;;8.30;7.27;;;21.40;99.90;;;;;;4966223;28;20283;-68
2023/09/07 08:15:51;;;;;;;8.83;7.07;;;21.20;99.90;;;;;;4964812;28;20558;-69
2023/09/07 08:18:16;;;;;;;7.93;7.13;;;21.30;99.90;;;;;;4966553;28;20200;-69
2023/09/07 08:20:42;;;;;;;7.63;6.90;;;21.40;99.90;;;;;;4966562;28;20283;-69
2023/09/07 08:23:09;;;;;;;6.87;6.20;;;21.40;99.90;;;;;;4966471;28;20640;-68
2023/09/07 08:25:35;;;;;;;8.37;7.40;;;21.50;99.90;;;;;;4966539;28;20204;-68
2023/09/07 08:28:05;;;;;;;7.97;6.10;;;21.60;99.90;;;;;;4966444;28;20417;-68
2023/09/07 08:30:30;;;;;;;9.57;8.70;;;21.70;99.90;;;;;;4966183;28;20674;-70
2023/09/07 08:32:56;;;;;;;7.57;6.77;;;21.70;99.90;;;;;;4964704;28;20425;-69
2023/09/07 08:35:26;;;;;;;7.50;6.90;;;21.90;99.90;;;;;;4974754;28;20264;-69
2023/09/07 08:37:52;;;;;;;9.00;8.10;;;22.00;99.90;;;;;;4975801;28;20146;-70
2023/09/07 08:40:19;;;;;;;8.20;7.50;;;22.00;99.90;;;;;;4975417;28;20409;-70
2023/09/07 08:42:44;;;;;;;7.80;7.10;;;21.90;99.90;;;;;;4975524;28;20467;-70
2023/09/07 08:45:15;;;;;;;7.33;6.63;;;22.20;99.90;;;;;;4988100;28;20447;-70
2023/09/07 08:47:42;;;;;;;7.90;7.10;;;22.20;99.90;;;;;;4995126;28;20161;-69
2023/09/07 08:50:10;;;;;;;7.53;6.87;;;22.20;99.90;;;;;;4994444;28;20535;-69
2023/09/07 08:52:35;;;;;;;8.97;6.20;;;22.20;99.90;;;;;;4994320;28;20840;-70
2023/09/07 08:55:04;;;;;;;10.20;6.93;;;22.60;99.90;;;;;;4981505;28;20506;-69
2023/09/07 08:57:30;;;;;;;8.17;7.13;;;22.80;99.90;;;;;;4994236;28;20611;-70
2023/09/07 08:59:56;;;;;;;7.10;6.40;;;22.70;99.90;;;;;;4994379;28;20396;-70
2023/09/07 09:02:21;;;;;;;10.60;7.57;;;22.70;99.90;;;;;;4994530;28;20404;-70
2023/09/07 09:04:47;;;;;;;7.60;7.00;;;22.80;99.90;;;;;;4981901;28;20678;-70
2023/09/07 09:07:13;;;;;;;8.93;8.17;;;22.80;99.90;;;;;;4974532;28;20256;-70
2023/09/07 09:09:38;;;;;;;8.63;7.73;;;22.90;99.90;;;;;;4974777;28;20248;-69
2023/09/07 09:12:11;;;;;;;8.03;7.07;;;22.80;99.90;;;;;;4973673;28;20169;-69
2023/09/07 09:14:37;;;;;;;7.70;7.00;;;23.00;99.90;;;;;;4974636;28;20682;-69
2023/09/07 09:17:03;;;;;;;7.67;6.97;;;22.90;99.90;;;;;;4973387;28;20421;-70
2023/09/07 09:19:33;;;;;;;8.40;6.10;;;23.20;99.90;;;;;;4974610;28;20173;-69
2023/09/07 09:21:58;;;;;;;7.67;6.87;;;23.50;99.90;;;;;;4974530;28;20405;-69
2023/09/07 09:24:24;;;;;;;8.03;7.30;;;23.50;99.90;;;;;;4974251;28;20994;-69
2023/09/07 09:26:50;;;;;;;7.53;6.83;;;23.40;99.90;;;;;;4991695;28;20202;-70
2023/09/07 09:29:15;;;;;;;8.93;7.40;;;23.40;99.90;;;;;;4984082;28;20178;-70
2023/09/07 09:31:41;;;;;;;7.77;7.10;;;23.50;99.90;;;;;;4989507;28;20545;-69
2023/09/07 09:34:07;;;;;;;8.57;7.63;;;23.50;99.90;;;;;;4974156;28;20645;-69
2023/09/07 09:36:34;;;;;;;8.53;7.60;;;23.60;99.90;;;;;;4974491;28;20208;-69
2023/09/07 09:39:00;;;;;;;7.27;6.67;;;23.60;99.90;;;;;;4974474;28;20173;-69
2023/09/07 09:41:27;;;;;;;8.60;7.80;;;23.50;99.90;;;;;;4974185;28;20401;-68
2023/09/07 09:43:55;;;;;;;7.23;6.67;;;23.60;99.90;;;;;;4973927;28;20193;-69
2023/09/07 09:46:22;;;;;;;7.80;7.10;;;23.80;99.90;;;;;;4974415;28;20435;-69
2023/09/07 09:48:48;;;;;;;8.03;7.33;;;23.90;99.90;;;;;;4974139;28;20419;-69
2023/09/07 09:51:14;;;;;;;7.83;6.60;;;24.10;99.90;;;;;;4975179;28;20416;-69
2023/09/07 09:53:42;;;;;;;8.50;7.70;;;24.20;99.90;;;;;;4973981;28;20209;-69
2023/09/07 09:56:07;;;;;;;7.57;6.87;;;24.20;99.90;;;;;;4985074;28;20534;-69
2023/09/07 09:58:33;;;;;;;6.53;6.03;;;24.50;99.90;;;;;;4993095;28;20450;-69
2023/09/07 10:01:05;;;;;;;6.93;6.30;;;24.80;99.90;;;;;;4993401;28;20169;-69
2023/09/07 10:03:45;;;;;;;7.03;6.50;;;25.00;99.90;;;;;;4974199;28;20194;-69
2023/09/07 10:06:12;;;;;;;8.60;7.90;;;25.00;99.90;;;;;;4974490;28;20395;-69
2023/09/07 10:08:37;;;;;;;7.77;7.07;;;24.90;99.90;;;;;;4973839;28;20750;-69
2023/09/07 10:11:09;;;;;;;6.93;6.17;;;24.90;99.90;;;;;;4967742;28;20428;-69
2023/09/07 10:13:35;;;;;;;7.50;6.90;;;25.00;99.90;;;;;;4964119;28;20203;-69
2023/09/07 10:16:09;;;;;;;7.93;5.90;;;25.10;99.90;;;;;;4964449;28;20452;-68
2023/09/07 10:18:38;;;;;;;8.63;7.77;;;25.30;99.90;;;;;;4964332;28;20172;-69
2023/09/07 10:21:06;;;;;;;7.53;6.90;;;25.20;99.90;;;;;;4964870;28;20812;-69
2023/09/07 10:23:51;;;;;;;6.70;6.20;;;25.30;99.90;;;;;;4964105;28;21353;-68
2023/09/07 10:26:20;;;;;;;7.63;6.80;;;25.20;99.90;;;;;;4964206;28;20427;-67
2023/09/07 10:28:46;;;;;;;7.87;7.07;;;25.40;99.90;;;;;;4962567;28;20972;-69
2023/09/07 10:31:19;;;;;;;6.77;6.07;;;25.50;99.90;;;;;;4964196;28;20424;-68
2023/09/07 10:33:46;;;;;;;9.60;7.27;;;25.60;99.90;;;;;;4963785;28;20239;-68
2023/09/07 10:36:27;;;;;;;7.90;7.20;;;25.70;99.90;;;;;;4964286;28;20463;-69
2023/09/07 10:38:54;;;;;;;7.23;6.43;;;25.60;99.90;;;;;;4964435;28;20491;-69
2023/09/07 10:41:20;;;;;;;8.23;7.50;;;25.50;99.90;;;;;;4963951;28;20405;-69
2023/09/07 10:43:51;;;;;;;9.93;8.40;;;25.80;99.90;;;;;;4963952;28;21002;-69
2023/09/07 10:46:21;;;;;;;9.13;8.30;;;26.90;99.90;;;;;;4969913;28;20419;-69
2023/09/07 10:48:51;;;;;;;9.67;7.80;;;27.80;99.90;;;;;;4973305;28;20481;-70
2023/09/07 10:51:18;;;;;;;10.43;8.00;;;28.90;99.60;;;;;;4973614;28;20516;-70
2023/09/07 10:53:43;;;;;;;9.43;7.37;;;29.10;99.10;;;;;;4971041;28;20425;-70
2023/09/07 10:56:09;;;;;;;8.67;6.57;;;30.50;97.20;;;;;;4965164;28;20449;-68
2023/09/07 10:58:38;;;;;;;7.80;7.03;;;31.90;95.20;;;;;;4973272;28;20173;-69
2023/09/07 11:01:05;;;;;;;7.47;6.80;;;32.30;93.00;;;;;;4973769;28;20264;-70
2023/09/07 11:03:31;;;;;;;7.30;6.70;;;32.40;92.10;;;;;;4973319;28;20487;-69
2023/09/07 11:06:08;;;;;;;7.00;6.30;;;32.90;91.10;;;;;;4973094;28;20504;-70
2023/09/07 11:08:34;;;;;;;6.70;6.20;;;31.40;92.20;;;;;;4973013;28;20479;-69
2023/09/07 11:11:04;;;;;;;7.00;6.30;;;31.60;91.90;;;;;;4972697;28;20421;-70
2023/09/07 11:13:29;;;;;;;7.93;6.50;;;33.50;90.20;;;;;;4972994;28;20455;-70
2023/09/07 11:15:57;;;;;;;9.13;7.10;;;35.30;83.10;;;;;;4972990;28;20875;-72
2023/09/07 11:18:23;;;;;;;7.10;6.43;;;34.20;83.40;;;;;;4972992;28;20659;-68
2023/09/07 11:20:49;;;;;;;8.37;6.73;;;34.30;83.60;;;;;;4972742;28;20409;-71
2023/09/07 11:23:16;;;;;;;7.17;5.47;;;34.30;83.60;;;;;;4988547;28;20419;-70
2023/09/07 11:25:42;;;;;;;7.17;6.53;;;34.90;80.60;;;;;;4980519;28;20404;-68
2023/09/07 11:28:10;;;;;;;6.97;6.27;;;34.00;81.20;;;;;;4992121;28;20412;-71
2023/09/07 11:30:35;;;;;;;7.50;6.60;;;34.70;79.30;;;;;;4995542;28;20188;-69
2023/09/07 11:33:10;;;;;;;6.20;5.70;;;33.50;81.00;;;;;;4996453;28;20408;-70
2023/09/07 11:35:35;;;;;;;6.33;5.53;;;31.90;86.60;;;;;;4979374;28;20267;-70
2023/09/07 11:38:03;;;;;;;6.70;6.20;;;33.70;82.90;;;;;;4976525;28;20536;-71
2023/09/07 11:40:29;;;;;;;6.37;5.63;;;34.60;80.80;;;;;;4976682;28;20323;-71
2023/09/07 11:42:55;;;;;;;7.13;6.27;;;35.00;77.30;;;;;;4976700;28;20405;-72
2023/09/07 11:45:20;;;;;;;6.73;6.13;;;34.30;78.80;;;;;;4974850;28;20547;-72
2023/09/07 11:47:47;;;;;;;6.97;6.37;;;34.10;81.30;;;;;;4976458;28;20192;-72
2023/09/07 11:50:12;;;;;;;9.73;5.70;;;35.70;75.90;;;;;;4976621;28;20204;-70
2023/09/07 11:52:38;;;;;;;6.63;5.30;;;35.70;75.10;;;;;;4976519;28;20440;-71
2023/09/07 11:55:04;;;;;;;5.70;5.10;;;36.00;72.80;;;;;;4974527;28;20201;-70
2023/09/07 11:57:30;;;;;;;6.00;5.13;;;34.90;74.70;;;;;;4976139;28;20173;-73
2023/09/07 11:59:56;;;;;;;5.60;5.10;;;36.30;74.80;;;;;;4975717;28;20250;-70
2023/09/07 12:02:21;;;;;;;5.43;5.03;;;36.50;70.50;;;;;;4976295;28;20440;-72
2023/09/07 12:04:48;;;;;;;5.87;5.27;;;36.00;71.00;;;;;;4976018;28;20194;-71
2023/09/07 12:07:14;;;;;;;5.00;4.60;;;35.70;70.60;;;;;;4976417;28;20534;-71
2023/09/07 12:09:40;;;;;;;5.03;4.63;;;36.40;70.70;;;;;;4976544;28;20467;-68
2023/09/07 12:12:05;;;;;;;5.73;5.17;;;36.50;71.60;;;;;;4976449;28;20954;-69
2023/09/07 12:14:31;;;;;;;5.00;4.50;;;36.80;68.10;;;;;;4975033;28;20193;-70
2023/09/07 12:16:57;;;;;;;6.87;4.90;;;35.70;70.80;;;;;;4976199;28;20205;-71
2023/09/07 12:19:22;;;;;;;5.87;5.47;;;37.70;67.40;;;;;;4975959;28;20628;-72
2023/09/07 12:21:48;;;;;;;5.67;5.20;;;38.90;63.80;;;;;;4975764;28;20173;-70
2023/09/07 12:24:13;;;;;;;5.20;4.70;;;39.20;61.80;;;;;;4975565;28;20299;-71
2023/09/07 12:26:39;;;;;;;5.20;4.70;;;38.10;61.80;;;;;;4990975;28;20174;-69
2023/09/07 12:29:05;;;;;;;4.90;4.40;;;37.50;62.10;;;;;;4975201;28;20180;-68
2023/09/07 12:31:31;;;;;;;4.93;4.43;;;36.90;63.40;;;;;;4975904;28;20200;-73
2023/09/07 12:33:57;;;;;;;4.87;4.47;;;35.90;65.90;;;;;;4975519;28;20236;-73
2023/09/07 12:36:22;;;;;;;4.30;3.90;;;36.10;67.20;;;;;;4975464;28;20501;-74
2023/09/07 12:38:49;;;;;;;5.33;4.83;;;37.10;64.20;;;;;;4975669;28;20172;-74
2023/09/07 12:41:15;;;;;;;5.27;4.87;;;37.10;63.70;;;;;;4973195;28;20636;-71
2023/09/07 12:43:42;;;;;;;6.00;4.97;;;36.60;64.60;;;;;;4976259;28;20436;-70